Time;durP1;ratioP1;P1;durP2;ratioP2;P2;SDS_P1;SDS_P2;PMS_P1;PMS_P2;Temp;Humidity;BMP_temperature;BMP_pressure;BME280_temperature;BME280_humidity;BME280_pressure;Samples;Min_cycle;Max_cycle;Signal;HPM_P1;HPM_P2
2023/05/18 00:01:41;;;;;;;2.30;1.10;;;;;;;7.80;46.68;102568.00;4916878;28;97049;-81
2023/05/18 00:04:07;;;;;;;3.73;1.17;;;;;;;7.77;46.41;102574.34;4931193;28;99360;-81
2023/05/18 00:06:33;;;;;;;3.23;0.90;;;;;;;7.71;46.50;102570.56;4917126;28;97253;-82
2023/05/18 00:09:00;;;;;;;2.73;1.07;;;;;;;7.61;46.75;102590.72;4925775;28;97309;-81
2023/05/18 00:11:25;;;;;;;4.80;0.83;;;;;;;7.55;47.02;102576.78;4915953;28;97500;-82
2023/05/18 00:13:50;;;;;;;2.73;1.30;;;;;;;7.58;46.82;102578.66;4916060;28;97000;-81
2023/05/18 00:16:16;;;;;;;3.03;1.10;;;;;;;7.49;46.77;102592.91;4918713;28;99854;-81
2023/05/18 00:18:43;;;;;;;2.90;1.03;;;;;;;7.45;47.08;102570.31;4923629;28;97080;-82
2023/05/18 00:21:15;;;;;;;2.00;1.10;;;;;;;7.28;47.18;102544.09;4922684;28;97346;-82
2023/05/18 00:23:51;;;;;;;;;;;;;;;;;;;;;
2023/05/18 00:26:16;;;;;;;2.83;1.00;;;;;;;7.38;46.88;102602.56;4915517;28;125358;-82
2023/05/18 00:28:47;;;;;;;4.17;1.43;;;;;;;7.31;47.41;102589.03;4916254;28;97407;-82
2023/05/18 00:31:12;;;;;;;2.00;1.10;;;;;;;7.29;47.10;102573.03;4914656;28;96858;-82
2023/05/18 00:33:38;;;;;;;3.87;1.23;;;;;;;7.26;47.06;102579.34;4913833;28;98761;-81
2023/05/18 00:36:03;;;;;;;3.50;1.37;;;;;;;7.24;46.95;102591.88;4916167;28;102874;-81
2023/05/18 00:38:28;;;;;;;4.70;1.00;;;;;;;7.23;47.19;102596.59;4918618;28;97674;-82
2023/05/18 00:40:57;;;;;;;1.37;1.03;;;;;;;7.21;47.33;102579.03;4914794;28;97227;-82
2023/05/18 00:43:22;;;;;;;1.10;0.90;;;;;;;7.21;47.30;102598.19;4925977;28;97452;-82
2023/05/18 00:45:48;;;;;;;1.47;0.90;;;;;;;7.13;47.18;102586.63;4917421;28;97662;-81
2023/05/18 00:48:14;;;;;;;3.03;0.90;;;;;;;7.15;47.27;102600.66;4928677;28;97130;-82
2023/05/18 00:50:39;;;;;;;1.47;1.07;;;;;;;7.02;47.43;102629.06;4918608;28;97511;-82
2023/05/18 00:53:05;;;;;;;2.07;1.17;;;;;;;7.09;47.52;102583.19;4921849;28;99227;-81
2023/05/18 00:55:30;;;;;;;1.60;1.03;;;;;;;7.08;47.53;102589.84;4915782;28;98754;-82
2023/05/18 00:57:57;;;;;;;2.87;1.10;;;;;;;7.07;47.68;102582.84;4928533;28;100527;-82
2023/05/18 01:00:23;;;;;;;3.40;1.03;;;;;;;6.97;47.36;102600.22;4934373;28;97261;-82
2023/05/18 01:02:49;;;;;;;4.87;1.20;;;;;;;6.95;47.56;102591.66;4914710;28;100250;-82
2023/05/18 01:05:16;;;;;;;3.27;1.27;;;;;;;6.94;47.46;102590.13;4914293;28;100075;-81
2023/05/18 01:07:42;;;;;;;1.20;1.10;;;;;;;6.97;47.51;102599.47;4919181;28;96760;-81
2023/05/18 01:10:09;;;;;;;1.40;1.10;;;;;;;6.92;47.62;102598.00;4915486;28;97086;-82
2023/05/18 01:12:47;;;;;;;0.77;0.77;;;;;;;6.89;47.36;102596.09;4919005;28;100353;-82
2023/05/18 01:15:19;;;;;;;2.10;0.90;;;;;;;6.87;47.89;102601.22;4914232;28;97013;-81
2023/05/18 01:18:26;;;;;;;3.73;1.07;;;;;;;6.82;48.59;102596.22;4920271;28;96735;-81
2023/05/18 01:21:33;;;;;;;7.03;1.07;;;;;;;6.66;48.82;102646.09;4914392;28;97476;-81
2023/05/18 01:24:14;;;;;;;3.07;1.37;;;;;;;6.59;47.80;102626.31;4918914;28;98589;-81
2023/05/18 01:26:44;;;;;;;1.63;1.10;;;;;;;6.70;47.70;102618.72;4916440;28;100246;-81
2023/05/18 01:29:12;;;;;;;1.90;1.10;;;;;;;6.57;47.58;102610.34;4916952;28;97602;-81
2023/05/18 01:31:41;;;;;;;1.57;1.03;;;;;;;6.60;47.68;102592.31;4912319;28;97124;-81
2023/05/18 01:34:06;;;;;;;2.13;1.10;;;;;;;6.51;47.70;102600.28;4913239;28;97411;-81
2023/05/18 01:36:32;;;;;;;1.20;1.00;;;;;;;6.48;48.02;102625.72;4916167;28;96767;-81
2023/05/18 01:39:00;;;;;;;1.60;0.77;;;;;;;6.43;47.98;102645.31;4921514;28;97513;-81
2023/05/18 01:41:28;;;;;;;3.53;1.03;;;;;;;6.41;47.74;102620.38;4918109;28;97115;-82
2023/05/18 01:44:08;;;;;;;3.60;0.90;;;;;;;6.29;48.46;102634.63;4925307;28;98116;-82
2023/05/18 01:47:05;;;;;;;1.10;1.00;;;;;;;6.26;48.97;102588.97;4917392;28;97034;-82
2023/05/18 01:49:55;;;;;;;2.30;1.00;;;;;;;6.27;49.06;102601.47;4915040;28;97948;-81
2023/05/18 01:52:30;;;;;;;4.10;0.90;;;;;;;6.25;48.32;102595.63;4916846;28;97441;-84
2023/05/18 01:55:00;;;;;;;2.63;0.80;;;;;;;6.24;48.02;102603.06;4916651;28;98896;-81
2023/05/18 01:57:28;;;;;;;3.20;1.03;;;;;;;6.23;47.77;102612.44;4914150;28;99141;-82
2023/05/18 01:59:54;;;;;;;3.27;0.87;;;;;;;6.19;48.08;102595.34;4915192;28;97505;-81
2023/05/18 02:02:20;;;;;;;2.53;1.13;;;;;;;6.12;48.21;102616.53;4912527;28;96769;-82
2023/05/18 02:04:45;;;;;;;2.47;1.10;;;;;;;6.11;48.11;102604.06;4929864;27;100456;-82
2023/05/18 02:07:10;;;;;;;3.70;1.00;;;;;;;5.99;48.17;102606.19;4918145;28;99464;-82
2023/05/18 02:09:36;;;;;;;2.70;1.37;;;;;;;6.00;48.09;102621.41;4913662;28;97283;-82
2023/05/18 02:12:01;;;;;;;1.27;0.90;;;;;;;5.98;47.98;102601.88;4914604;28;97446;-82
2023/05/18 02:14:27;;;;;;;3.53;0.90;;;;;;;5.94;48.37;102612.09;4915241;28;99221;-82
2023/05/18 02:16:52;;;;;;;1.00;0.73;;;;;;;5.89;48.25;102598.91;4916007;28;99324;-81
2023/05/18 02:19:18;;;;;;;2.10;1.07;;;;;;;5.87;48.52;102601.28;4915017;28;97164;-81
2023/05/18 02:21:44;;;;;;;3.30;1.00;;;;;;;5.81;48.55;102602.88;4910676;28;97289;-81
2023/05/18 02:24:11;;;;;;;2.37;1.00;;;;;;;5.82;48.28;102615.38;4918476;28;100433;-81
2023/05/18 02:26:36;;;;;;;1.57;0.90;;;;;;;5.81;48.39;102602.88;4913034;28;98400;-81
2023/05/18 02:29:05;;;;;;;2.40;1.00;;;;;;;5.76;48.45;102610.78;4917796;28;97097;-81
2023/05/18 02:31:30;;;;;;;1.00;0.90;;;;;;;5.78;48.56;102622.84;4915752;28;97014;-81
2023/05/18 02:33:55;;;;;;;2.77;1.00;;;;;;;5.78;48.31;102619.31;4911936;28;97709;-82
2023/05/18 02:36:21;;;;;;;1.33;0.93;;;;;;;5.72;48.82;102604.59;4913829;28;100641;-81
2023/05/18 02:38:47;;;;;;;2.90;1.17;;;;;;;5.70;48.54;102626.09;4916095;28;97079;-81
2023/05/18 02:41:13;;;;;;;2.67;1.00;;;;;;;5.71;48.59;102603.03;4914032;28;96877;-82
2023/05/18 02:43:38;;;;;;;1.40;1.30;;;;;;;5.66;48.39;102600.75;4915133;28;97930;-82
2023/05/18 02:46:04;;;;;;;1.93;1.00;;;;;;;5.60;48.35;102608.63;4914865;28;96946;-82
2023/05/18 02:48:29;;;;;;;1.00;1.00;;;;;;;5.58;48.30;102597.34;4912962;28;96800;-81
2023/05/18 02:50:55;;;;;;;1.17;0.77;;;;;;;5.57;48.57;102604.00;4911000;28;96896;-81
2023/05/18 02:53:21;;;;;;;2.13;0.83;;;;;;;5.50;48.45;102609.56;4912168;28;99331;-81
2023/05/18 02:55:47;;;;;;;3.90;1.10;;;;;;;5.46;48.72;102608.81;4915509;28;100401;-82
2023/05/18 02:58:13;;;;;;;1.23;0.87;;;;;;;5.45;48.92;102607.28;4913056;28;96956;-81
2023/05/18 03:00:40;;;;;;;1.30;0.90;;;;;;;5.43;48.51;102603.41;4914437;28;97111;-81
2023/05/18 03:03:05;;;;;;;1.60;1.30;;;;;;;5.39;48.76;102619.84;4937091;28;99455;-81
2023/05/18 03:05:31;;;;;;;2.10;1.47;;;;;;;5.40;48.73;102612.41;4912988;28;100253;-82
2023/05/18 03:07:56;;;;;;;1.73;0.90;;;;;;;5.37;48.49;102605.81;4912269;28;97381;-82
2023/05/18 03:10:22;;;;;;;1.43;0.90;;;;;;;5.29;48.63;102642.53;4913792;28;97125;-82
2023/05/18 03:12:47;;;;;;;2.27;1.20;;;;;;;5.28;48.68;102613.72;4919788;28;101171;-81
2023/05/18 03:15:14;;;;;;;2.67;1.00;;;;;;;5.26;48.85;102621.56;4914127;28;96720;-81
2023/05/18 03:17:41;;;;;;;4.60;1.00;;;;;;;5.24;48.70;102615.72;4916747;28;97456;-81
2023/05/18 03:20:07;;;;;;;1.63;1.20;;;;;;;5.24;49.12;102613.00;4913524;28;101758;-81
2023/05/18 03:22:32;;;;;;;1.93;1.30;;;;;;;5.17;48.98;102679.34;4915304;28;100385;-81
2023/05/18 03:24:58;;;;;;;2.93;1.10;;;;;;;5.18;48.87;102620.84;4912198;28;97392;-81
2023/05/18 03:27:25;;;;;;;2.10;1.03;;;;;;;5.20;48.81;102639.53;4913116;28;97424;-81
2023/05/18 03:29:56;;;;;;;2.60;0.80;;;;;;;5.20;48.76;102628.59;4915034;28;97383;-82
2023/05/18 03:32:27;;;;;;;3.70;1.50;;;;;;;5.15;49.05;102618.16;4913113;28;98450;-82
2023/05/18 03:34:53;;;;;;;2.03;1.00;;;;;;;5.12;48.86;102613.50;4920364;28;99675;-81
2023/05/18 03:37:19;;;;;;;3.07;1.40;;;;;;;5.11;49.18;102631.06;4932697;28;97260;-81
2023/05/18 03:39:44;;;;;;;1.80;0.80;;;;;;;5.08;49.34;102621.75;4913542;28;97387;-81
2023/05/18 03:42:10;;;;;;;1.63;1.07;;;;;;;5.11;49.10;102620.91;4916261;28;99854;-83
2023/05/18 03:44:35;;;;;;;2.63;1.03;;;;;;;5.13;49.14;102606.88;4916972;28;98606;-82
2023/05/18 03:47:01;;;;;;;5.20;1.73;;;;;;;5.10;48.99;102657.56;4915265;28;97256;-81
2023/05/18 03:49:28;;;;;;;1.50;1.10;;;;;;;5.07;49.18;102613.94;4912424;28;97217;-81
2023/05/18 03:51:55;;;;;;;2.00;0.90;;;;;;;5.13;49.10;102623.25;4928828;28;99156;-81
2023/05/18 03:54:21;;;;;;;2.37;1.27;;;;;;;5.15;49.16;102632.59;4914515;28;97821;-81
2023/05/18 03:56:47;;;;;;;2.47;1.53;;;;;;;5.17;49.22;102635.69;4927054;28;97457;-81
2023/05/18 03:59:12;;;;;;;3.30;1.17;;;;;;;5.23;49.15;102628.59;4914260;28;97177;-81
2023/05/18 04:01:40;;;;;;;2.03;1.10;;;;;;;5.24;49.08;102629.38;4916000;28;97948;-81
2023/05/18 04:04:06;;;;;;;2.87;1.47;;;;;;;5.26;49.11;102629.72;4917085;28;97690;-82
2023/05/18 04:06:34;;;;;;;1.40;1.10;;;;;;;5.28;49.22;102621.91;4917679;28;97118;-81
2023/05/18 04:09:03;;;;;;;1.77;0.83;;;;;;;5.28;49.26;102624.66;4913284;28;97043;-82
2023/05/18 04:11:31;;;;;;;1.00;1.00;;;;;;;5.35;49.24;102638.22;4922811;28;97859;-82
2023/05/18 04:13:56;;;;;;;1.73;1.20;;;;;;;5.31;49.35;102624.59;4922273;28;99467;-82
2023/05/18 04:16:23;;;;;;;1.73;0.90;;;;;;;5.39;49.32;102644.41;4916796;28;97513;-81
2023/05/18 04:18:48;;;;;;;1.50;0.80;;;;;;;5.45;49.46;102648.22;4927196;28;97358;-82
2023/05/18 04:21:14;;;;;;;4.33;1.23;;;;;;;5.52;49.59;102634.50;4915351;28;97487;-82
2023/05/18 04:23:40;;;;;;;1.87;0.97;;;;;;;5.62;49.42;102651.91;4919297;28;97431;-82
2023/05/18 04:26:06;;;;;;;2.87;0.90;;;;;;;5.66;49.43;102647.94;4919738;28;97750;-83
2023/05/18 04:28:31;;;;;;;3.30;1.50;;;;;;;5.70;49.53;102662.34;4918890;28;97218;-81
2023/05/18 04:30:57;;;;;;;1.07;1.00;;;;;;;5.75;49.69;102642.78;4914830;28;97589;-81
2023/05/18 04:33:23;;;;;;;3.50;1.60;;;;;;;5.82;49.38;102663.75;4920265;28;100304;-82
2023/05/18 04:35:53;;;;;;;1.40;1.10;;;;;;;5.89;49.63;102656.28;4918997;28;96783;-82
2023/05/18 04:38:21;;;;;;;1.90;1.70;;;;;;;5.98;49.61;102651.06;4923463;28;96926;-82
2023/05/18 04:40:48;;;;;;;2.87;1.37;;;;;;;6.05;49.36;102661.91;4916448;28;100073;-82
2023/05/18 04:43:14;;;;;;;4.07;1.53;;;;;;;6.18;49.46;102670.28;4913201;28;99381;-82
2023/05/18 04:45:39;;;;;;;3.80;1.57;;;;;;;6.24;49.44;102651.50;4912252;28;97212;-82
2023/05/18 04:48:05;;;;;;;3.67;1.00;;;;;;;6.27;49.09;102661.59;4913351;28;97411;-82
2023/05/18 04:50:30;;;;;;;1.27;1.20;;;;;;;6.39;49.46;102658.28;4909755;28;99110;-83
2023/05/18 04:52:56;;;;;;;3.13;1.10;;;;;;;6.49;49.48;102668.28;4914440;28;97750;-81
2023/05/18 04:55:24;;;;;;;2.27;1.20;;;;;;;6.56;49.47;102670.91;4913039;28;96941;-81
2023/05/18 04:57:56;;;;;;;4.80;1.60;;;;;;;6.67;49.38;102660.56;4917575;28;97551;-82
2023/05/18 05:00:23;;;;;;;1.10;1.00;;;;;;;6.77;49.25;102663.13;4912546;28;97298;-82
2023/05/18 05:02:49;;;;;;;2.10;1.10;;;;;;;6.86;49.43;102670.78;4912193;28;97202;-81
2023/05/18 05:05:15;;;;;;;1.63;1.10;;;;;;;6.98;49.46;102680.34;4913741;28;96946;-82
2023/05/18 05:07:40;;;;;;;2.97;1.07;;;;;;;7.07;49.41;102670.44;4921635;28;98198;-82
2023/05/18 05:10:06;;;;;;;1.50;1.37;;;;;;;7.21;49.24;102680.31;4912349;28;98769;-82
2023/05/18 05:12:32;;;;;;;1.80;1.03;;;;;;;7.32;49.54;102680.91;4921420;28;100387;-82
2023/05/18 05:14:57;;;;;;;1.20;0.90;;;;;;;7.42;49.47;102680.72;4911886;28;97276;-82
2023/05/18 05:17:23;;;;;;;1.23;0.87;;;;;;;7.55;49.42;102698.06;4916273;28;97174;-80
2023/05/18 05:19:49;;;;;;;7.87;1.63;;;;;;;7.66;49.55;102670.47;4911614;28;99421;-80
2023/05/18 05:22:14;;;;;;;2.73;1.17;;;;;;;7.82;49.71;102680.69;4917149;28;104020;-80
2023/05/18 05:24:40;;;;;;;2.37;1.20;;;;;;;7.93;49.89;102684.75;4912479;28;99909;-81
2023/05/18 05:27:05;;;;;;;4.80;0.90;;;;;;;8.11;49.86;102684.34;4913670;28;97200;-80
2023/05/18 05:29:30;;;;;;;2.57;1.27;;;;;;;8.20;49.85;102665.34;4913185;28;100994;-81
2023/05/18 05:31:56;;;;;;;1.30;0.97;;;;;;;8.41;50.02;102683.34;4920654;28;100566;-81
2023/05/18 05:34:21;;;;;;;1.40;1.07;;;;;;;8.56;50.06;102688.03;4909300;28;97252;-80
2023/05/18 05:36:46;;;;;;;6.63;1.33;;;;;;;8.59;49.99;102667.97;4936623;28;97389;-81
2023/05/18 05:39:12;;;;;;;3.60;0.90;;;;;;;8.86;50.07;102671.22;4910282;28;99215;-80
2023/05/18 05:41:38;;;;;;;2.87;0.93;;;;;;;9.02;49.89;102673.94;4913101;28;97366;-80
2023/05/18 05:44:03;;;;;;;1.70;1.20;;;;;;;9.21;49.99;102702.47;4913041;28;97268;-81
2023/05/18 05:46:29;;;;;;;1.00;0.67;;;;;;;9.40;49.79;102689.81;4912339;28;96666;-81
2023/05/18 05:48:54;;;;;;;1.93;1.37;;;;;;;9.50;49.73;102697.75;4912781;28;97074;-80
2023/05/18 05:51:20;;;;;;;1.97;0.93;;;;;;;9.66;49.56;102703.19;4915385;28;99587;-81
2023/05/18 05:53:46;;;;;;;2.20;0.97;;;;;;;9.82;49.45;102696.84;4915763;28;97352;-81
2023/05/18 05:56:12;;;;;;;2.03;0.90;;;;;;;9.99;49.30;102701.06;4911947;28;97095;-81
2023/05/18 05:58:37;;;;;;;9.63;1.40;;;;;;;10.16;49.11;102710.00;4934496;28;99738;-81
2023/05/18 06:01:03;;;;;;;1.73;1.27;;;;;;;10.28;48.94;102736.78;4927744;28;99337;-82
2023/05/18 06:03:30;;;;;;;2.43;1.13;;;;;;;10.41;48.80;102693.53;4917630;28;97418;-81
2023/05/18 06:05:55;;;;;;;4.20;0.73;;;;;;;10.57;48.63;102696.91;4917433;28;97662;-81
2023/05/18 06:08:23;;;;;;;2.13;0.80;;;;;;;10.71;48.64;102692.16;4933162;28;100712;-82
2023/05/18 06:10:48;;;;;;;3.20;1.07;;;;;;;10.79;48.35;102708.00;4915032;28;97663;-80
2023/05/18 06:13:15;;;;;;;1.90;1.33;;;;;;;10.88;48.38;102693.53;4930535;28;96847;-81
2023/05/18 06:15:40;;;;;;;2.90;1.00;;;;;;;10.99;48.47;102707.72;4916078;28;97273;-80
2023/05/18 06:18:06;;;;;;;2.60;1.10;;;;;;;11.10;48.14;102703.41;4919860;28;100619;-82
2023/05/18 06:20:31;;;;;;;2.80;0.90;;;;;;;11.21;48.15;102705.78;4916136;28;100265;-81
2023/05/18 06:22:56;;;;;;;1.70;0.83;;;;;;;11.32;47.97;102706.97;4921916;28;96774;-81
2023/05/18 06:25:23;;;;;;;5.73;1.30;;;;;;;11.45;47.97;102715.16;4919938;28;96846;-81
2023/05/18 06:27:48;;;;;;;1.03;0.80;;;;;;;11.58;47.84;102706.84;4916275;28;97915;-81
2023/05/18 06:30:14;;;;;;;2.23;0.93;;;;;;;11.71;47.63;102700.06;4911678;28;99451;-81
2023/05/18 06:32:39;;;;;;;1.57;0.97;;;;;;;11.78;47.70;102699.81;4916086;28;96825;-83
2023/05/18 06:35:05;;;;;;;3.20;1.03;;;;;;;11.77;47.42;102701.00;4924084;28;96734;-81
2023/05/18 06:37:31;;;;;;;5.00;1.30;;;;;;;11.74;47.25;102710.22;4916500;28;98997;-81
2023/05/18 06:39:57;;;;;;;5.17;1.20;;;;;;;11.74;47.40;102701.94;4910567;28;97390;-81
2023/05/18 06:42:22;;;;;;;4.83;0.97;;;;;;;11.81;47.32;102720.22;4912267;28;96847;-82
2023/05/18 06:44:49;;;;;;;3.20;0.87;;;;;;;11.78;47.26;102715.56;4921044;28;97145;-81
2023/05/18 06:47:15;;;;;;;3.57;0.83;;;;;;;11.80;47.17;102713.13;4919215;28;100905;-81
2023/05/18 06:49:40;;;;;;;2.83;0.83;;;;;;;11.74;47.09;102720.47;4914148;28;97333;-81
2023/05/18 06:52:07;;;;;;;3.73;1.03;;;;;;;11.71;47.22;102727.63;4916834;28;96643;-82
2023/05/18 06:54:33;;;;;;;1.57;1.07;;;;;;;11.71;47.14;102727.63;4914729;28;96883;-81
2023/05/18 06:56:58;;;;;;;1.20;0.70;;;;;;;11.71;47.09;102733.16;4917233;28;99176;-81
2023/05/18 06:59:23;;;;;;;2.10;1.17;;;;;;;11.79;47.06;102719.88;4920710;28;107002;-82
2023/05/18 07:01:49;;;;;;;3.13;0.77;;;;;;;11.90;47.06;102717.50;4925779;28;97244;-82
2023/05/18 07:04:15;;;;;;;3.63;0.97;;;;;;;11.94;47.01;102718.91;4940301;28;96844;-80
2023/05/18 07:06:40;;;;;;;1.20;0.90;;;;;;;11.96;46.67;102716.47;4930379;28;99190;-81
2023/05/18 07:09:07;;;;;;;2.53;1.10;;;;;;;11.99;46.74;102737.63;4922496;28;98565;-80
2023/05/18 07:11:33;;;;;;;2.00;1.30;;;;;;;12.11;46.62;102715.91;4917933;28;97328;-80
2023/05/18 07:13:58;;;;;;;4.17;1.07;;;;;;;12.21;46.73;102723.03;4921419;28;97024;-81
2023/05/18 07:16:26;;;;;;;2.30;0.80;;;;;;;12.30;46.74;102723.81;4920904;28;99308;-82
2023/05/18 07:18:51;;;;;;;4.20;1.20;;;;;;;12.42;46.54;102736.00;4916894;28;99416;-82
2023/05/18 07:21:17;;;;;;;1.20;0.80;;;;;;;12.48;46.32;102728.66;4923774;28;97344;-81
2023/05/18 07:23:42;;;;;;;5.23;0.90;;;;;;;12.56;46.14;102719.63;4924127;28;97443;-81
2023/05/18 07:26:10;;;;;;;2.83;0.83;;;;;;;12.70;46.21;102723.81;4926352;28;97624;-81
2023/05/18 07:28:36;;;;;;;5.00;1.00;;;;;;;12.77;46.07;102726.28;4918054;28;99481;-81
2023/05/18 07:31:02;;;;;;;1.20;0.70;;;;;;;12.86;45.92;102737.38;4914861;28;97123;-81
2023/05/18 07:33:27;;;;;;;1.60;0.93;;;;;;;12.90;45.93;102710.34;4912105;28;97338;-81
2023/05/18 07:35:53;;;;;;;4.77;1.30;;;;;;;12.99;45.96;102718.66;4911996;28;97854;-81
2023/05/18 07:38:18;;;;;;;2.67;1.03;;;;;;;13.03;45.53;102738.63;4909932;28;99123;-82
2023/05/18 07:40:43;;;;;;;2.00;1.00;;;;;;;12.99;45.70;102729.72;4928825;28;97094;-82
2023/05/18 07:43:09;;;;;;;2.70;0.90;;;;;;;12.94;45.44;102730.31;4914272;28;98230;-81
2023/05/18 07:45:34;;;;;;;2.60;0.90;;;;;;;12.97;45.55;102732.19;4912293;28;98479;-81
2023/05/18 07:48:00;;;;;;;2.17;1.07;;;;;;;13.09;45.58;102734.06;4909852;28;98620;-81
2023/05/18 07:50:26;;;;;;;2.20;0.63;;;;;;;13.12;45.22;102722.09;4910844;28;97101;-81
2023/05/18 07:52:51;;;;;;;2.00;0.80;;;;;;;13.12;45.16;102732.38;4913381;28;96954;-82
2023/05/18 07:55:17;;;;;;;3.30;1.23;;;;;;;13.15;44.90;102743.25;4926379;28;100508;-82
2023/05/18 07:57:42;;;;;;;2.60;1.23;;;;;;;13.20;45.14;102720.56;4915632;28;98106;-81
2023/05/18 08:00:09;;;;;;;5.50;1.50;;;;;;;13.23;44.81;102733.47;4911519;28;97226;-81
2023/05/18 08:02:34;;;;;;;2.80;1.10;;;;;;;13.29;44.89;102726.09;4910025;28;96983;-82
2023/05/18 08:05:00;;;;;;;3.60;1.30;;;;;;;13.37;44.89;102734.81;4904135;28;100886;-81
2023/05/18 08:07:28;;;;;;;3.33;1.17;;;;;;;13.42;44.85;102729.47;4903892;28;98956;-80
2023/05/18 08:09:54;;;;;;;1.23;1.00;;;;;;;13.59;44.40;102720.81;4901983;28;96918;-80
2023/05/18 08:12:20;;;;;;;3.43;1.20;;;;;;;13.60;44.50;102720.38;4901135;28;97301;-81
2023/05/18 08:14:45;;;;;;;2.73;1.03;;;;;;;13.73;44.73;102723.75;4911707;28;100235;-81
2023/05/18 08:17:11;;;;;;;1.63;1.10;;;;;;;13.72;44.61;102715.88;4912698;28;99842;-81
2023/05/18 08:19:36;;;;;;;2.07;1.10;;;;;;;13.75;44.31;102718.50;4905134;28;97217;-81
2023/05/18 08:22:02;;;;;;;2.00;0.90;;;;;;;13.73;44.12;102728.50;4905832;28;98532;-81
2023/05/18 08:24:27;;;;;;;2.93;0.80;;;;;;;13.68;44.28;102724.34;4912221;28;100280;-82
2023/05/18 08:26:52;;;;;;;3.30;0.77;;;;;;;13.76;43.95;102724.81;4907008;28;98953;-83
2023/05/18 08:29:18;;;;;;;4.27;1.20;;;;;;;13.73;43.91;102722.97;4906210;28;98190;-80
2023/05/18 08:31:43;;;;;;;2.17;1.30;;;;;;;13.81;44.11;102716.66;4905445;28;98611;-82
2023/05/18 08:34:08;;;;;;;6.93;1.23;;;;;;;13.87;44.20;102720.31;4904252;28;97607;-81
2023/05/18 08:36:34;;;;;;;1.20;0.90;;;;;;;14.02;44.26;102715.66;4904799;28;97746;-81
2023/05/18 08:39:04;;;;;;;1.90;0.90;;;;;;;14.22;43.66;102720.66;4904142;28;97253;-81
2023/05/18 08:41:33;;;;;;;2.80;1.13;;;;;;;14.41;43.80;102719.41;4904567;28;97694;-81
2023/05/18 08:44:08;;;;;;;3.43;1.20;;;;;;;14.63;42.43;102719.16;4905197;28;97965;-80
2023/05/18 08:46:37;;;;;;;1.37;0.90;;;;;;;14.63;43.15;102708.84;4905772;28;98364;-81
2023/05/18 08:49:04;;;;;;;2.37;1.50;;;;;;;14.69;42.98;102700.63;4904135;28;97331;-80
2023/05/18 08:51:33;;;;;;;1.30;1.00;;;;;;;14.89;43.02;102693.28;4912059;28;97711;-81
2023/05/18 08:53:59;;;;;;;4.20;1.40;;;;;;;15.14;43.00;102686.44;4900213;28;100622;-82
2023/05/18 08:56:28;;;;;;;1.97;1.10;;;;;;;15.34;42.53;102703.22;4901328;28;99076;-80
2023/05/18 08:58:55;;;;;;;2.47;0.93;;;;;;;15.46;42.17;102687.59;4907743;28;98810;-80
2023/05/18 09:01:26;;;;;;;7.70;1.20;;;;;;;15.64;42.54;102731.78;4908458;28;98165;-81
2023/05/18 09:03:52;;;;;;;2.83;0.87;;;;;;;15.99;42.34;102699.34;4908088;28;99824;-81
2023/05/18 09:06:19;;;;;;;5.40;0.93;;;;;;;16.30;41.84;102702.38;4906353;28;97209;-81
2023/05/18 09:08:45;;;;;;;3.87;1.43;;;;;;;16.47;41.75;102691.50;4907436;28;98975;-83
2023/05/18 09:11:12;;;;;;;2.93;1.10;;;;;;;16.67;41.57;102686.00;4907218;28;97220;-81
2023/05/18 09:13:37;;;;;;;1.53;1.10;;;;;;;16.81;41.16;102692.75;4905394;28;99709;-81
2023/05/18 09:16:03;;;;;;;3.13;1.20;;;;;;;16.75;41.12;102691.91;4907791;28;97517;-82
2023/05/18 09:18:29;;;;;;;1.30;0.73;;;;;;;16.60;41.21;102682.88;4907165;28;97166;-83
2023/05/18 09:20:54;;;;;;;1.67;0.90;;;;;;;16.60;41.15;102691.94;4905663;28;97769;-82
2023/05/18 09:23:20;;;;;;;2.60;1.10;;;;;;;16.33;41.27;102693.09;4908749;28;97189;-81
2023/05/18 09:25:48;;;;;;;3.50;1.30;;;;;;;16.01;41.13;102682.97;4908535;28;98125;-81
2023/05/18 09:28:26;;;;;;;4.90;1.10;;;;;;;15.82;40.39;102700.31;4906631;28;97166;-81
2023/05/18 09:30:52;;;;;;;3.17;1.27;;;;;;;15.67;41.35;102689.22;4906555;28;97268;-82
2023/05/18 09:33:22;;;;;;;6.83;1.20;;;;;;;15.65;41.63;102678.59;4905021;28;97949;-81
2023/05/18 09:35:49;;;;;;;5.03;1.37;;;;;;;15.72;41.58;102672.69;4906134;28;99230;-82
2023/05/18 09:38:20;;;;;;;4.43;1.07;;;;;;;15.92;41.56;102674.78;4917176;28;96936;-81
2023/05/18 09:40:49;;;;;;;5.43;1.10;;;;;;;16.19;41.62;102670.88;4903723;28;97642;-81
2023/05/18 09:43:17;;;;;;;2.57;1.30;;;;;;;16.51;41.05;102675.44;4906531;28;100283;-81
2023/05/18 09:45:45;;;;;;;3.80;1.20;;;;;;;16.65;40.64;102676.59;4904719;28;99661;-83
2023/05/18 09:48:12;;;;;;;3.73;1.30;;;;;;;16.56;40.28;102679.50;4906411;28;98003;-82
2023/05/18 09:50:38;;;;;;;2.80;1.20;;;;;;;16.57;40.55;102706.84;4904443;28;97184;-82
2023/05/18 09:53:08;;;;;;;5.03;1.60;;;;;;;16.51;40.01;102681.00;4907578;28;100537;-81
2023/05/18 09:55:37;;;;;;;3.37;1.10;;;;;;;16.40;40.32;102678.78;4905206;28;97362;-80
2023/05/18 09:58:06;;;;;;;1.77;1.27;;;;;;;16.35;40.52;102670.38;4908588;28;98080;-81
2023/05/18 10:00:31;;;;;;;2.93;1.13;;;;;;;16.30;40.62;102662.72;4906185;28;97656;-81
2023/05/18 10:02:57;;;;;;;6.10;1.53;;;;;;;16.34;40.79;102685.50;4905439;28;99471;-81
2023/05/18 10:05:23;;;;;;;1.53;0.90;;;;;;;16.42;40.69;102673.50;4908841;28;97786;-81
2023/05/18 10:07:53;;;;;;;1.83;1.27;;;;;;;16.42;40.26;102679.03;4903972;28;97410;-82
2023/05/18 10:10:21;;;;;;;1.63;1.00;;;;;;;16.31;40.25;102670.59;4907193;28;97695;-81
2023/05/18 10:12:49;;;;;;;3.00;1.20;;;;;;;16.30;40.47;102684.94;4906552;28;97866;-80
2023/05/18 10:15:16;;;;;;;2.80;1.20;;;;;;;16.49;40.25;102661.19;4907041;28;97868;-81
2023/05/18 10:17:43;;;;;;;1.40;1.30;;;;;;;16.63;39.85;102676.31;4903252;28;97284;-81
2023/05/18 10:20:09;;;;;;;1.80;1.17;;;;;;;16.69;39.69;102666.03;4905279;28;97832;-80
2023/05/18 10:22:36;;;;;;;2.87;1.10;;;;;;;16.52;39.61;102659.50;4905184;28;97903;-80
2023/05/18 10:25:05;;;;;;;2.10;1.10;;;;;;;16.49;39.73;102663.97;4906120;28;99041;-81
2023/05/18 10:27:34;;;;;;;2.60;1.23;;;;;;;16.52;39.87;102667.84;4903952;28;97371;-81
2023/05/18 10:30:02;;;;;;;2.30;1.17;;;;;;;16.70;40.02;102659.25;4905734;28;99023;-80
2023/05/18 10:32:29;;;;;;;3.23;1.20;;;;;;;16.78;39.64;102671.47;4906464;28;98232;-82
2023/05/18 10:34:55;;;;;;;1.57;1.10;;;;;;;16.98;39.77;102652.00;4916894;28;99046;-81
2023/05/18 10:37:22;;;;;;;3.20;1.43;;;;;;;17.09;39.33;102650.13;4905167;28;97590;-81
2023/05/18 10:39:49;;;;;;;2.53;1.13;;;;;;;17.19;39.14;102650.69;4905980;28;97195;-81
2023/05/18 10:42:17;;;;;;;4.50;1.33;;;;;;;17.38;39.11;102656.72;4906212;28;97813;-81
2023/05/18 10:44:46;;;;;;;2.40;1.20;;;;;;;17.57;39.22;102650.34;4907609;28;99275;-81
2023/05/18 10:47:13;;;;;;;3.17;1.33;;;;;;;17.73;38.84;102646.97;4915040;28;96865;-81
2023/05/18 10:49:41;;;;;;;4.00;1.10;;;;;;;17.74;38.30;102648.47;4911143;28;96831;-81
2023/05/18 10:52:08;;;;;;;1.73;1.03;;;;;;;17.78;38.34;102653.81;4927186;27;100849;-80
2023/05/18 10:54:35;;;;;;;1.80;1.17;;;;;;;17.93;38.43;102655.19;4911035;28;99179;-81
2023/05/18 10:57:01;;;;;;;4.07;1.50;;;;;;;18.28;35.81;102637.47;4912131;28;96930;-81
2023/05/18 10:59:27;;;;;;;2.80;1.07;;;;;;;18.26;36.73;102643.50;4910605;28;96869;-82
2023/05/18 11:01:54;;;;;;;4.43;1.30;;;;;;;18.21;35.87;102635.91;4923429;28;99222;-81
2023/05/18 11:04:25;;;;;;;2.87;1.57;;;;;;;18.00;36.13;102633.75;4912436;28;98891;-81
2023/05/18 11:06:58;;;;;;;2.20;1.27;;;;;;;18.09;33.96;102633.53;4913602;28;97120;-82
2023/05/18 11:09:25;;;;;;;1.67;1.20;;;;;;;18.15;36.79;102643.44;4912572;28;97051;-80
2023/05/18 11:11:56;;;;;;;2.90;1.10;;;;;;;18.32;36.55;102624.81;4910946;28;99086;-82
2023/05/18 11:14:27;;;;;;;3.17;1.20;;;;;;;18.49;35.63;102628.47;4911909;28;97230;-81
2023/05/18 11:16:52;;;;;;;1.93;1.13;;;;;;;18.50;36.54;102626.47;4912273;28;97191;-81
2023/05/18 11:19:19;;;;;;;3.30;1.30;;;;;;;18.55;36.42;102620.13;4927070;28;97528;-81
2023/05/18 11:21:45;;;;;;;2.70;0.93;;;;;;;18.65;36.47;102613.09;4912038;28;99200;-81
2023/05/18 11:24:20;;;;;;;5.83;1.40;;;;;;;18.68;34.74;102620.44;4913516;28;97320;-80
2023/05/18 11:26:49;;;;;;;1.40;1.00;;;;;;;18.62;33.04;102614.09;4916927;28;97637;-80
2023/05/18 11:29:19;;;;;;;1.70;1.07;;;;;;;18.53;34.72;102622.66;4916562;28;96725;-82